Time;durP1;ratioP1;P1;durP2;ratioP2;P2;SDS_P1;SDS_P2;PMS_P1;PMS_P2;Temp;Humidity;BMP_temperature;BMP_pressure;BME280_temperature;BME280_humidity;BME280_pressure;Samples;Min_cycle;Max_cycle;Signal;HPM_P1;HPM_P2
2022/06/17 00:02:06;;;;;;;1.90;1.52;;;27.60;63.80;;;;;;6245150;23;20027;-81
2022/06/17 00:04:32;;;;;;;2.08;1.45;;;27.60;63.70;;;;;;6246216;23;20574;-81
2022/06/17 00:07:01;;;;;;;1.50;1.40;;;27.60;63.60;;;;;;6245712;23;20027;-81
2022/06/17 00:09:30;;;;;;;1.60;1.20;;;27.60;63.60;;;;;;6245358;23;20024;-81
2022/06/17 00:11:55;;;;;;;1.88;1.50;;;27.60;63.60;;;;;;6245046;23;20005;-81
2022/06/17 00:14:28;;;;;;;1.95;1.33;;;27.60;63.50;;;;;;6245032;23;20354;-82
2022/06/17 00:16:54;;;;;;;1.40;1.30;;;27.50;63.40;;;;;;6245456;23;20007;-82
2022/06/17 00:19:20;;;;;;;2.03;1.65;;;27.60;63.60;;;;;;6246272;23;19997;-82
2022/06/17 00:21:52;;;;;;;2.67;1.50;;;27.50;63.80;;;;;;6245368;23;20437;-82
2022/06/17 00:24:24;;;;;;;2.58;1.60;;;27.50;63.90;;;;;;6246060;23;20004;-81
2022/06/17 00:26:50;;;;;;;3.28;1.98;;;27.50;63.80;;;;;;6245204;23;20030;-81
2022/06/17 00:29:19;;;;;;;2.13;1.60;;;27.40;63.80;;;;;;6245824;23;20369;-81
2022/06/17 00:31:45;;;;;;;1.75;1.50;;;27.40;63.90;;;;;;6245414;23;20023;-81
2022/06/17 00:34:11;;;;;;;2.38;1.65;;;27.40;64.10;;;;;;6245177;23;20004;-81
2022/06/17 00:36:37;;;;;;;2.42;1.90;;;27.40;64.20;;;;;;6243555;23;20138;-81
2022/06/17 00:39:13;;;;;;;2.90;1.90;;;27.40;64.70;;;;;;6245783;23;20000;-81
2022/06/17 00:41:41;;;;;;;3.78;1.92;;;27.40;64.90;;;;;;6244867;23;20000;-81
2022/06/17 00:44:27;;;;;;;3.47;1.70;;;27.30;65.00;;;;;;6245814;23;20423;-79
2022/06/17 00:47:02;;;;;;;3.13;1.73;;;27.30;65.40;;;;;;6245340;23;20276;-80
2022/06/17 00:49:48;;;;;;;2.53;1.80;;;27.20;65.50;;;;;;6245171;23;20005;-81
2022/06/17 00:52:29;;;;;;;3.83;1.85;;;27.10;66.00;;;;;;6244701;23;20000;-80
2022/06/17 00:55:01;;;;;;;3.85;2.00;;;26.90;66.30;;;;;;6245973;23;19996;-81
2022/06/17 00:57:33;;;;;;;2.28;1.55;;;26.70;66.70;;;;;;6245269;23;20006;-81
2022/06/17 01:00:04;;;;;;;2.03;1.67;;;26.70;66.50;;;;;;6246010;23;20000;-81
2022/06/17 01:02:37;;;;;;;2.22;1.73;;;26.70;66.70;;;;;;6245085;23;20637;-80
2022/06/17 01:05:04;;;;;;;2.45;1.80;;;26.70;66.50;;;;;;6245579;23;20003;-82
2022/06/17 01:07:37;;;;;;;1.83;1.52;;;26.80;66.60;;;;;;6245288;23;20300;-81
2022/06/17 01:10:11;;;;;;;2.22;2.00;;;26.80;66.60;;;;;;6245242;23;20399;-81
2022/06/17 01:12:48;;;;;;;2.20;2.00;;;26.80;66.40;;;;;;6244879;23;20115;-82
2022/06/17 01:15:19;;;;;;;2.55;1.90;;;26.90;66.30;;;;;;6245379;23;20085;-81
2022/06/17 01:17:46;;;;;;;3.35;2.13;;;26.90;66.30;;;;;;6245296;23;19996;-80
2022/06/17 01:20:13;;;;;;;2.70;1.80;;;26.90;66.70;;;;;;6245495;23;20066;-80
2022/06/17 01:22:42;;;;;;;2.30;2.10;;;26.80;66.10;;;;;;6247582;23;20024;-80
2022/06/17 01:25:11;;;;;;;2.97;2.40;;;26.80;66.00;;;;;;6246824;23;20004;-80
2022/06/17 01:27:40;;;;;;;4.97;2.78;;;26.90;66.00;;;;;;6220057;23;20011;-80
2022/06/17 01:30:09;;;;;;;2.33;1.90;;;26.80;66.40;;;;;;6247518;23;20439;-80
2022/06/17 01:32:41;;;;;;;3.85;2.58;;;26.70;66.00;;;;;;6246472;23;20545;-79
2022/06/17 01:35:09;;;;;;;2.75;1.88;;;26.70;66.10;;;;;;6247766;23;20003;-81
2022/06/17 01:37:35;;;;;;;2.85;2.15;;;26.80;66.10;;;;;;6246419;23;20092;-81
2022/06/17 01:40:01;;;;;;;3.85;2.10;;;26.80;66.30;;;;;;6247543;23;20028;-81
2022/06/17 01:42:28;;;;;;;2.35;2.10;;;26.80;65.90;;;;;;6246277;23;20016;-81
2022/06/17 01:44:54;;;;;;;2.38;1.90;;;26.70;65.80;;;;;;6246886;23;19996;-81
2022/06/17 01:47:24;;;;;;;2.90;2.15;;;26.80;65.90;;;;;;6246847;23;20362;-80
2022/06/17 01:49:54;;;;;;;3.00;2.20;;;26.80;66.00;;;;;;6247890;23;20052;-80
2022/06/17 01:52:38;;;;;;;3.10;1.63;;;26.80;66.00;;;;;;6246217;23;20054;-80
2022/06/17 01:55:18;;;;;;;2.53;2.33;;;26.80;66.10;;;;;;6246163;23;20000;-84
2022/06/17 01:57:58;;;;;;;2.47;2.25;;;26.80;66.10;;;;;;6247454;23;20339;-84
2022/06/17 02:00:27;;;;;;;2.88;1.90;;;26.80;66.70;;;;;;6247052;23;19997;-85
2022/06/17 02:03:01;;;;;;;2.03;1.83;;;26.70;66.50;;;;;;6247120;23;20008;-81
2022/06/17 02:05:33;;;;;;;2.38;1.92;;;26.70;66.40;;;;;;6246177;23;20415;-84
2022/06/17 02:08:00;;;;;;;2.63;2.00;;;26.70;66.30;;;;;;6247064;23;20001;-83
2022/06/17 02:10:31;;;;;;;3.22;1.95;;;26.70;66.30;;;;;;6271154;22;20031;-83
2022/06/17 02:12:58;;;;;;;4.28;2.28;;;26.70;66.30;;;;;;6246807;23;20000;-84
2022/06/17 02:15:24;;;;;;;4.82;1.92;;;26.70;66.20;;;;;;6246181;23;20000;-85
2022/06/17 02:17:52;;;;;;;2.65;2.10;;;26.70;66.10;;;;;;6246599;23;20039;-84
2022/06/17 02:20:19;;;;;;;3.55;2.00;;;26.70;66.10;;;;;;6246675;23;20000;-85
2022/06/17 02:22:46;;;;;;;4.20;2.03;;;26.70;66.20;;;;;;6247284;23;20008;-84
2022/06/17 02:25:22;;;;;;;2.67;1.92;;;26.70;66.10;;;;;;6246719;23;20011;-84
2022/06/17 02:27:55;;;;;;;2.67;1.83;;;26.70;66.00;;;;;;6246731;23;20137;-84
2022/06/17 02:30:21;;;;;;;2.17;1.95;;;26.70;65.80;;;;;;6245774;23;20005;-83
2022/06/17 02:32:48;;;;;;;3.13;2.10;;;26.70;65.40;;;;;;6246404;23;20526;-83
2022/06/17 02:35:44;;;;;;;1.95;1.73;;;26.70;65.10;;;;;;6246507;23;20006;-83
2022/06/17 02:38:17;;;;;;;2.40;1.80;;;26.70;65.00;;;;;;6247178;23;20000;-83
2022/06/17 02:40:47;;;;;;;3.17;2.03;;;26.70;65.00;;;;;;6246445;23;20028;-84
2022/06/17 02:43:17;;;;;;;3.85;1.90;;;26.70;65.00;;;;;;6245704;23;20012;-83
2022/06/17 02:45:48;;;;;;;1.85;1.67;;;26.70;64.70;;;;;;6246311;23;20004;-83
2022/06/17 02:48:39;;;;;;;1.52;1.40;;;26.60;64.60;;;;;;6246390;23;20004;-83
2022/06/17 02:51:05;;;;;;;2.47;1.75;;;26.60;64.60;;;;;;6246199;23;19997;-83
2022/06/17 02:53:36;;;;;;;2.58;1.98;;;26.60;64.40;;;;;;6245659;23;20004;-83
2022/06/17 02:56:16;;;;;;;2.33;1.90;;;26.60;64.50;;;;;;6246118;23;20311;-82
2022/06/17 02:59:10;;;;;;;2.33;1.80;;;26.60;64.60;;;;;;6246754;23;20000;-85
2022/06/17 03:01:38;;;;;;;4.00;2.58;;;26.60;64.50;;;;;;6247008;23;19997;-84
2022/06/17 03:04:17;;;;;;;3.97;2.80;;;26.50;64.60;;;;;;6246919;23;20062;-82
2022/06/17 03:06:45;;;;;;;2.20;2.00;;;26.50;64.60;;;;;;6245938;23;20066;-83
2022/06/17 03:09:30;;;;;;;4.53;3.03;;;26.50;64.70;;;;;;6245932;23;20079;-83
2022/06/17 03:12:04;;;;;;;3.28;2.67;;;26.50;65.30;;;;;;6246421;23;20039;-83
2022/06/17 03:14:45;;;;;;;4.15;3.08;;;26.40;65.00;;;;;;6246115;23;20396;-82
2022/06/17 03:17:14;;;;;;;4.00;2.95;;;26.40;65.10;;;;;;6246078;23;19996;-85
2022/06/17 03:19:40;;;;;;;4.57;2.92;;;26.40;65.20;;;;;;6245436;23;20004;-84
2022/06/17 03:22:11;;;;;;;4.30;2.85;;;26.40;65.20;;;;;;6246636;23;20044;-84
2022/06/17 03:25:09;;;;;;;5.35;3.22;;;26.40;65.40;;;;;;6245957;23;20327;-83
2022/06/17 03:27:46;;;;;;;6.72;4.13;;;26.40;65.50;;;;;;6246216;23;20030;-81
2022/06/17 03:30:18;;;;;;;5.63;3.42;;;26.40;65.50;;;;;;6245639;23;20004;-85
2022/06/17 03:32:47;;;;;;;4.88;3.60;;;26.40;65.70;;;;;;6246234;23;20008;-86
2022/06/17 03:35:35;;;;;;;5.10;3.55;;;26.40;65.80;;;;;;6245543;23;20000;-86
2022/06/17 03:38:15;;;;;;;4.07;3.65;;;26.40;66.00;;;;;;6245188;23;20058;-83
2022/06/17 03:40:45;;;;;;;4.25;3.85;;;26.40;65.90;;;;;;6245607;23;20000;-83
2022/06/17 03:43:13;;;;;;;;;;;26.40;66.40;;;;;;6213586;23;20474;-83
2022/06/17 03:45:58;;;;;;;5.45;3.95;;;26.30;66.30;;;;;;6215400;23;19980;-84
2022/06/17 03:48:26;;;;;;;5.97;3.58;;;26.30;66.20;;;;;;6215648;23;20453;-83
2022/06/17 03:50:52;;;;;;;6.93;4.47;;;26.30;66.20;;;;;;6213398;23;20005;-83
2022/06/17 03:53:31;;;;;;;4.88;4.10;;;26.30;66.20;;;;;;6215601;23;20063;-84
2022/06/17 03:56:07;;;;;;;4.85;3.92;;;26.30;66.30;;;;;;6215738;23;20079;-84
2022/06/17 03:58:36;;;;;;;7.50;4.95;;;26.30;66.40;;;;;;6215168;23;20001;-83
2022/06/17 04:01:16;;;;;;;6.93;5.70;;;26.30;66.40;;;;;;6215663;23;20053;-83
2022/06/17 04:03:47;;;;;;;6.25;4.57;;;26.20;66.90;;;;;;6215703;23;20012;-83
2022/06/17 04:06:20;;;;;;;6.07;4.80;;;26.20;66.60;;;;;;6214690;23;20004;-83
2022/06/17 04:09:05;;;;;;;6.00;5.40;;;26.20;66.70;;;;;;6215336;23;20015;-84
2022/06/17 04:11:37;;;;;;;8.52;6.47;;;26.20;67.40;;;;;;6213590;23;20005;-83
2022/06/17 04:14:06;;;;;;;7.22;4.93;;;26.00;67.80;;;;;;6215965;23;20407;-83
2022/06/17 04:16:42;;;;;;;8.90;6.22;;;26.00;68.00;;;;;;6215063;23;20054;-80
2022/06/17 04:19:17;;;;;;;9.77;6.32;;;25.90;68.40;;;;;;6215504;23;20481;-80
2022/06/17 04:21:43;;;;;;;5.55;4.97;;;25.90;68.70;;;;;;6214053;23;19996;-80
2022/06/17 04:24:13;;;;;;;5.15;4.60;;;25.90;68.20;;;;;;6215349;23;20004;-81
2022/06/17 04:26:40;;;;;;;7.40;5.10;;;25.90;68.50;;;;;;6215161;23;20001;-81
2022/06/17 04:29:10;;;;;;;5.50;4.70;;;25.90;68.20;;;;;;6214633;23;20370;-81
2022/06/17 04:31:36;;;;;;;5.60;4.82;;;25.90;68.40;;;;;;6215157;23;20000;-82
2022/06/17 04:34:13;;;;;;;5.78;4.93;;;25.90;68.30;;;;;;6213440;23;20083;-82
2022/06/17 04:37:03;;;;;;;7.85;7.07;;;25.90;68.30;;;;;;6213896;23;19997;-81
2022/06/17 04:39:46;;;;;;;6.82;4.85;;;25.90;68.90;;;;;;6214891;23;20075;-81
2022/06/17 04:42:18;;;;;;;8.07;5.28;;;25.90;68.50;;;;;;6219577;23;20011;-81
2022/06/17 04:44:45;;;;;;;6.25;5.15;;;25.90;68.70;;;;;;6244629;23;20012;-81
2022/06/17 04:47:16;;;;;;;10.35;5.13;;;25.90;68.90;;;;;;6244881;23;20296;-81
2022/06/17 04:49:46;;;;;;;7.60;5.78;;;25.90;68.90;;;;;;6245432;23;20004;-81
2022/06/17 04:52:37;;;;;;;5.93;5.05;;;25.90;69.40;;;;;;6244959;23;20642;-79
2022/06/17 04:55:06;;;;;;;6.22;4.55;;;25.90;69.00;;;;;;6245171;23;20015;-83
2022/06/17 04:57:32;;;;;;;8.13;5.00;;;25.90;69.00;;;;;;6244746;23;20004;-82
2022/06/17 04:59:59;;;;;;;6.85;5.15;;;26.00;68.90;;;;;;6245765;23;20342;-82
2022/06/17 05:02:29;;;;;;;9.90;5.05;;;26.00;68.80;;;;;;6244880;23;20000;-82
2022/06/17 05:05:04;;;;;;;8.27;4.40;;;26.00;68.80;;;;;;6245451;23;20008;-82
2022/06/17 05:07:37;;;;;;;8.35;5.18;;;26.00;68.80;;;;;;6245126;23;20223;-82
2022/06/17 05:10:07;;;;;;;7.75;5.80;;;26.10;68.80;;;;;;6245221;23;20003;-82
2022/06/17 05:12:43;;;;;;;5.78;4.68;;;26.10;69.30;;;;;;6244446;23;20004;-82
2022/06/17 05:15:11;;;;;;;7.03;5.18;;;26.10;69.30;;;;;;6245092;23;20046;-81
2022/06/17 05:17:40;;;;;;;15.20;9.60;;;26.10;68.70;;;;;;6244538;23;20617;-81
2022/06/17 05:20:09;;;;;;;5.43;4.15;;;26.00;68.80;;;;;;6243711;23;20000;-82
2022/06/17 05:22:46;;;;;;;6.03;4.35;;;26.00;68.60;;;;;;6243986;23;20446;-78
2022/06/17 05:25:24;;;;;;;6.80;4.45;;;26.10;69.00;;;;;;6244914;23;20003;-77
2022/06/17 05:27:50;;;;;;;5.20;4.05;;;26.10;68.50;;;;;;6244995;23;20003;-77
2022/06/17 05:30:15;;;;;;;6.53;4.85;;;26.20;68.40;;;;;;6243932;23;20002;-77
2022/06/17 05:32:46;;;;;;;6.10;4.28;;;26.20;68.00;;;;;;6244766;23;20023;-77
2022/06/17 05:35:12;;;;;;;7.50;4.40;;;26.20;67.90;;;;;;6245744;23;19996;-77
2022/06/17 05:37:38;;;;;;;8.65;4.57;;;26.20;68.10;;;;;;6244351;23;20004;-77
2022/06/17 05:40:05;;;;;;;6.22;3.70;;;26.30;68.00;;;;;;6245368;23;20422;-78
2022/06/17 05:42:31;;;;;;;12.50;4.10;;;26.30;68.00;;;;;;6244191;23;20454;-82
2022/06/17 05:44:57;;;;;;;4.07;3.70;;;26.30;68.10;;;;;;6245584;23;20004;-82
2022/06/17 05:47:22;;;;;;;5.22;3.70;;;26.40;67.80;;;;;;6244050;23;20004;-81
2022/06/17 05:49:49;;;;;;;4.60;3.85;;;26.40;67.80;;;;;;6245045;23;20011;-81
2022/06/17 05:52:15;;;;;;;4.18;3.40;;;26.40;67.80;;;;;;6244913;23;19996;-81
2022/06/17 05:54:40;;;;;;;5.03;3.63;;;26.40;67.70;;;;;;6244143;23;20071;-80
2022/06/17 05:57:06;;;;;;;4.25;3.30;;;26.50;67.60;;;;;;6244343;23;20480;-80
2022/06/17 05:59:32;;;;;;;3.92;2.90;;;26.50;67.40;;;;;;6244195;23;20058;-82
2022/06/17 06:01:58;;;;;;;6.03;3.88;;;26.50;67.20;;;;;;6244262;23;19996;-81
2022/06/17 06:04:35;;;;;;;4.90;3.53;;;26.60;67.20;;;;;;6245173;23;20130;-79
2022/06/17 06:07:01;;;;;;;6.10;3.53;;;26.60;67.10;;;;;;6243624;23;20008;-84
2022/06/17 06:09:27;;;;;;;5.57;3.50;;;26.60;67.30;;;;;;6246043;23;20426;-83
2022/06/17 06:11:52;;;;;;;6.32;3.70;;;26.60;67.30;;;;;;6248003;23;20004;-81
2022/06/17 06:14:28;;;;;;;4.55;2.95;;;26.60;67.30;;;;;;6250377;23;20088;-80
2022/06/17 06:16:54;;;;;;;4.57;3.08;;;26.70;67.50;;;;;;6246902;23;20004;-83
2022/06/17 06:19:20;;;;;;;4.57;3.35;;;26.70;67.20;;;;;;6244542;23;20000;-85
2022/06/17 06:21:45;;;;;;;5.75;3.50;;;26.70;66.70;;;;;;6245504;23;20010;-83
2022/06/17 06:24:11;;;;;;;4.05;3.05;;;26.70;66.20;;;;;;6269913;22;20090;-81
2022/06/17 06:26:37;;;;;;;4.68;2.90;;;26.70;66.40;;;;;;6244337;23;20008;-81
2022/06/17 06:29:06;;;;;;;4.78;2.90;;;26.70;66.40;;;;;;6242004;23;20085;-83
2022/06/17 06:31:34;;;;;;;3.97;3.00;;;26.70;66.40;;;;;;6240653;23;20008;-83
2022/06/17 06:34:00;;;;;;;3.22;2.90;;;26.80;66.30;;;;;;6241394;23;20087;-85
2022/06/17 06:36:26;;;;;;;3.92;2.90;;;26.80;66.10;;;;;;6242496;23;20028;-86
2022/06/17 06:38:51;;;;;;;4.20;2.70;;;26.80;66.10;;;;;;6242260;23;20273;-84
2022/06/17 06:41:18;;;;;;;4.78;2.95;;;26.80;66.00;;;;;;6240788;23;20000;-87
2022/06/17 06:43:44;;;;;;;5.60;2.78;;;26.90;66.10;;;;;;6245917;23;20073;-86
2022/06/17 06:46:15;;;;;;;5.00;2.47;;;26.90;66.00;;;;;;6246114;23;20430;-88
2022/06/17 06:48:43;;;;;;;3.97;2.60;;;26.90;65.90;;;;;;6242937;23;20008;-81
2022/06/17 06:51:09;;;;;;;4.85;2.90;;;27.00;65.80;;;;;;6245742;23;20008;-81
2022/06/17 06:53:37;;;;;;;6.82;2.78;;;27.00;65.60;;;;;;6252317;23;20015;-83
2022/06/17 06:56:05;;;;;;;4.05;2.65;;;27.00;65.60;;;;;;6244782;23;20011;-81
2022/06/17 06:58:32;;;;;;;4.55;2.90;;;27.00;65.60;;;;;;6245801;23;20000;-81
2022/06/17 07:01:01;;;;;;;5.50;3.30;;;27.10;65.90;;;;;;6218681;23;20039;-81
2022/06/17 07:03:28;;;;;;;4.10;2.70;;;27.10;66.00;;;;;;6245452;23;20004;-80
2022/06/17 07:06:00;;;;;;;4.65;2.67;;;27.20;65.90;;;;;;6242535;23;20015;-81
2022/06/17 07:08:29;;;;;;;4.53;2.97;;;27.20;65.60;;;;;;6269678;22;20004;-81
2022/06/17 07:10:56;;;;;;;5.82;2.88;;;27.20;65.30;;;;;;6244966;23;20028;-83
2022/06/17 07:13:22;;;;;;;6.57;3.42;;;27.30;65.00;;;;;;6244867;23;20000;-82
2022/06/17 07:15:50;;;;;;;3.80;2.30;;;27.30;64.80;;;;;;6245565;23;20001;-82
2022/06/17 07:18:23;;;;;;;4.80;2.60;;;27.40;64.90;;;;;;6246086;23;20004;-82
2022/06/17 07:20:52;;;;;;;5.63;2.85;;;27.40;64.70;;;;;;6245025;23;20000;-82
2022/06/17 07:23:25;;;;;;;3.17;2.88;;;27.50;64.70;;;;;;6245791;23;20001;-81
2022/06/17 07:25:51;;;;;;;5.97;3.58;;;27.50;65.10;;;;;;6243336;23;20014;-83
2022/06/17 07:28:21;;;;;;;5.97;2.72;;;27.60;64.40;;;;;;6244921;23;20000;-82
2022/06/17 07:30:50;;;;;;;4.60;2.53;;;27.60;64.50;;;;;;6244433;23;20004;-81
2022/06/17 07:33:17;;;;;;;3.15;2.50;;;27.60;64.50;;;;;;6245791;23;20008;-79
2022/06/17 07:35:45;;;;;;;4.05;2.60;;;27.70;65.20;;;;;;6246907;23;19996;-80
2022/06/17 07:41:01;;;;;;;5.32;3.10;;;27.80;64.40;;;;;;6245911;23;20457;-82
2022/06/17 07:43:26;;;;;;;5.32;3.17;;;27.90;64.20;;;;;;6246121;23;20426;-80
2022/06/17 07:45:52;;;;;;;5.28;3.05;;;27.90;64.50;;;;;;6246588;23;20012;-80
2022/06/17 07:48:19;;;;;;;3.97;2.97;;;28.00;63.90;;;;;;6271198;22;20005;-80
2022/06/17 07:50:45;;;;;;;3.63;2.70;;;28.00;63.70;;;;;;6244423;23;20081;-82
2022/06/17 07:53:14;;;;;;;5.40;2.67;;;28.10;63.60;;;;;;6246365;23;20369;-77
2022/06/17 07:55:42;;;;;;;9.00;3.20;;;28.10;64.10;;;;;;6245867;23;20423;-82
2022/06/17 07:58:10;;;;;;;3.53;2.35;;;28.20;63.30;;;;;;6245399;23;20071;-82
2022/06/17 08:00:38;;;;;;;4.15;2.78;;;28.20;63.20;;;;;;6245054;23;20001;-81
2022/06/17 08:03:05;;;;;;;6.55;2.85;;;28.30;63.00;;;;;;6244869;23;20000;-81
2022/06/17 08:05:31;;;;;;;4.32;3.05;;;28.30;62.90;;;;;;6245791;23;20007;-81
2022/06/17 08:07:58;;;;;;;5.18;2.85;;;28.40;63.40;;;;;;6245540;23;20326;-79
2022/06/17 08:10:30;;;;;;;4.10;3.00;;;28.40;63.40;;;;;;6242091;23;20020;-81
2022/06/17 08:12:56;;;;;;;3.00;2.30;;;28.50;63.60;;;;;;6244196;23;20004;-80
2022/06/17 08:15:22;;;;;;;3.88;2.67;;;28.60;63.30;;;;;;6244920;23;20079;-76
2022/06/17 08:17:48;;;;;;;4.70;2.75;;;28.60;63.10;;;;;;6245664;23;20361;-77
2022/06/17 08:20:21;;;;;;;3.20;2.50;;;28.70;63.00;;;;;;6244859;23;20000;-77
2022/06/17 08:22:47;;;;;;;3.10;2.45;;;28.70;62.90;;;;;;6244965;23;20000;-78
2022/06/17 08:25:14;;;;;;;5.18;3.00;;;28.80;63.40;;;;;;6245389;23;20000;-78
2022/06/17 08:27:46;;;;;;;4.30;3.22;;;28.90;63.80;;;;;;6244811;23;20503;-78
2022/06/17 08:30:14;;;;;;;4.93;2.67;;;29.00;63.60;;;;;;6269051;22;20008;-80
2022/06/17 08:32:46;;;;;;;4.47;2.90;;;29.00;63.90;;;;;;6244609;23;19996;-80
2022/06/17 08:35:19;;;;;;;4.03;2.92;;;29.10;63.90;;;;;;6245065;23;20000;-80
2022/06/17 08:37:51;;;;;;;4.70;2.83;;;29.20;63.80;;;;;;6246404;23;20000;-80
2022/06/17 08:40:27;;;;;;;4.05;2.55;;;29.20;62.80;;;;;;6246338;23;20020;-82
2022/06/17 08:42:56;;;;;;;3.17;2.53;;;29.30;62.50;;;;;;6245740;23;20026;-80
2022/06/17 08:45:29;;;;;;;2.88;2.50;;;29.30;62.40;;;;;;6245630;23;20489;-80
2022/06/17 08:48:18;;;;;;;4.28;2.90;;;29.40;62.90;;;;;;6246483;23;20000;-79
2022/06/17 08:51:18;;;;;;;4.78;3.03;;;29.50;62.30;;;;;;6248239;23;20070;-78
2022/06/17 08:54:06;;;;;;;5.15;2.42;;;29.50;62.40;;;;;;6249399;23;20001;-78
2022/06/17 08:56:49;;;;;;;5.03;2.75;;;29.50;62.50;;;;;;6248742;23;20004;-78
2022/06/17 08:59:24;;;;;;;2.70;2.28;;;29.60;62.30;;;;;;6246147;23;20338;-78
2022/06/17 09:02:19;;;;;;;2.88;2.50;;;29.60;62.00;;;;;;6246191;23;19996;-79
2022/06/17 09:05:06;;;;;;;4.47;2.67;;;29.60;61.40;;;;;;6245477;23;20084;-82
2022/06/17 09:07:55;;;;;;;4.20;2.78;;;29.60;61.10;;;;;;6245240;23;20003;-81
2022/06/17 09:10:34;;;;;;;4.47;2.65;;;29.60;60.70;;;;;;6243211;23;20009;-83
2022/06/17 09:13:24;;;;;;;4.13;2.70;;;29.70;60.40;;;;;;6244216;23;20000;-79
2022/06/17 09:16:15;;;;;;;4.15;2.67;;;29.70;60.20;;;;;;6244382;23;20415;-82
2022/06/17 09:21:16;;;;;;;2.97;2.25;;;29.80;59.80;;;;;;6337398;22;20019;-81
2022/06/17 09:23:43;;;;;;;4.10;2.50;;;29.90;60.50;;;;;;6335013;22;20094;-77
2022/06/17 09:26:31;;;;;;;5.10;2.90;;;30.00;60.20;;;;;;6311316;22;20063;-77
2022/06/17 09:29:34;;;;;;;3.50;2.45;;;30.10;59.10;;;;;;6310369;22;20022;-82
2022/06/17 09:32:16;;;;;;;3.65;2.97;;;30.20;58.90;;;;;;6312578;22;20445;-77
2022/06/17 09:35:17;;;;;;;3.20;2.65;;;30.30;58.70;;;;;;6308372;22;20006;-78
2022/06/17 09:37:57;;;;;;;3.80;2.40;;;30.40;58.80;;;;;;6269670;22;20011;-77
2022/06/17 09:40:35;;;;;;;2.85;2.17;;;30.50;58.00;;;;;;6311290;22;20026;-78
2022/06/17 09:43:11;;;;;;;3.85;2.50;;;30.60;57.10;;;;;;6340123;22;20013;-79
2022/06/17 09:45:45;;;;;;;2.85;2.40;;;30.70;56.70;;;;;;6337742;22;20328;-82
2022/06/17 09:48:17;;;;;;;4.35;2.88;;;30.70;56.20;;;;;;6334486;22;20003;-78
2022/06/17 09:50:57;;;;;;;3.70;2.55;;;30.70;53.40;;;;;;6332938;22;20068;-80
2022/06/17 09:53:38;;;;;;;5.93;2.85;;;30.70;56.00;;;;;;6336613;22;19999;-79
2022/06/17 09:56:15;;;;;;;5.47;3.65;;;30.90;56.40;;;;;;6338256;22;20348;-79
2022/06/17 09:58:54;;;;;;;4.22;3.08;;;31.00;55.90;;;;;;6339020;22;19999;-80
2022/06/17 10:01:20;;;;;;;4.50;3.13;;;31.00;56.40;;;;;;6334374;22;20056;-78
2022/06/17 10:03:46;;;;;;;4.07;2.40;;;31.10;56.70;;;;;;6337920;22;19999;-78
2022/06/17 10:06:11;;;;;;;3.25;2.80;;;31.20;56.30;;;;;;6338613;22;20007;-78
2022/06/17 10:08:55;;;;;;;3.72;2.88;;;31.30;56.50;;;;;;6311120;22;20006;-78
2022/06/17 10:11:28;;;;;;;3.30;2.70;;;31.40;56.30;;;;;;6339201;22;20345;-78
2022/06/17 10:14:16;;;;;;;3.72;2.58;;;31.50;55.20;;;;;;6337735;22;20007;-78
2022/06/17 10:19:50;;;;;;;4.50;2.70;;;31.60;54.20;;;;;;6338081;22;20076;-81
2022/06/17 10:22:27;;;;;;;3.45;2.42;;;31.70;54.50;;;;;;6338627;22;20052;-81
2022/06/17 10:25:17;;;;;;;8.30;2.80;;;31.70;54.50;;;;;;6339357;22;20058;-81
2022/06/17 10:27:53;;;;;;;6.78;2.92;;;31.80;54.30;;;;;;6339183;22;20120;-81
2022/06/17 10:30:34;;;;;;;2.88;2.40;;;31.90;54.50;;;;;;6335093;22;20007;-81
2022/06/17 10:33:02;;;;;;;5.60;3.00;;;32.00;54.60;;;;;;6311186;22;20003;-81
2022/06/17 10:35:34;;;;;;;4.07;3.15;;;32.10;54.60;;;;;;6338798;22;19999;-81
2022/06/17 10:38:03;;;;;;;4.15;2.60;;;32.10;54.00;;;;;;6338801;22;20006;-80
2022/06/17 10:40:32;;;;;;;4.93;2.92;;;32.20;54.80;;;;;;6339095;22;20006;-81
2022/06/17 10:43:04;;;;;;;5.72;2.97;;;32.30;55.00;;;;;;6339462;22;19999;-81
2022/06/17 10:45:30;;;;;;;4.22;3.10;;;32.40;54.70;;;;;;6339165;22;20007;-83
2022/06/17 10:48:26;;;;;;;3.03;2.70;;;32.50;54.00;;;;;;6337095;22;19998;-84
2022/06/17 10:50:52;;;;;;;3.80;3.00;;;32.60;53.80;;;;;;6339034;22;20006;-84
2022/06/17 10:53:37;;;;;;;6.15;2.75;;;32.70;53.30;;;;;;6338543;22;19994;-84
2022/06/17 10:56:12;;;;;;;3.33;2.45;;;32.80;52.80;;;;;;6339220;22;20002;-84
2022/06/17 10:58:53;;;;;;;3.65;2.63;;;33.00;52.50;;;;;;6339073;22;19999;-84
2022/06/17 11:01:19;;;;;;;7.78;2.65;;;33.10;52.60;;;;;;6337161;22;20143;-83
2022/06/17 11:03:48;;;;;;;5.00;2.60;;;33.20;51.00;;;;;;6336901;22;20041;-83
2022/06/17 11:06:19;;;;;;;2.73;1.93;;;33.40;50.90;;;;;;6336994;22;20063;-82
2022/06/17 11:09:03;;;;;;;4.28;2.50;;;33.50;50.60;;;;;;6337223;22;20006;-83
2022/06/17 11:12:03;;;;;;;3.38;2.70;;;33.60;49.50;;;;;;6339878;22;20081;-83
2022/06/17 11:15:07;;;;;;;2.75;2.15;;;33.70;49.60;;;;;;6339045;22;20056;-84
2022/06/17 11:17:41;;;;;;;3.78;2.35;;;33.90;47.70;;;;;;6339193;22;20294;-82
2022/06/17 11:20:15;;;;;;;4.97;2.47;;;34.00;47.90;;;;;;6339129;22;20006;-82
2022/06/17 11:22:55;;;;;;;4.78;2.67;;;34.10;46.70;;;;;;6339698;22;20006;-83
2022/06/17 11:25:35;;;;;;;4.05;2.22;;;34.10;46.50;;;;;;6339632;22;20305;-83
2022/06/17 11:28:12;;;;;;;3.05;2.08;;;34.10;47.00;;;;;;6338881;22;20074;-83
2022/06/17 11:30:53;;;;;;;3.40;2.25;;;34.20;46.60;;;;;;6335806;22;19998;-81
2022/06/17 11:33:46;;;;;;;4.93;2.30;;;34.40;46.10;;;;;;6337946;22;19999;-81
2022/06/17 11:36:25;;;;;;;8.73;2.08;;;34.70;46.00;;;;;;6316963;22;20371;-82
2022/06/17 11:38:51;;;;;;;3.30;2.42;;;35.20;43.20;;;;;;6337916;22;20425;-79
2022/06/17 11:41:32;;;;;;;3.00;2.30;;;35.50;42.00;;;;;;6331611;22;20025;-81
2022/06/17 11:44:11;;;;;;;3.53;2.50;;;35.80;42.90;;;;;;6333720;22;20030;-80
2022/06/17 11:46:52;;;;;;;5.45;2.70;;;36.10;42.70;;;;;;6337632;22;20122;-82
2022/06/17 11:49:20;;;;;;;3.05;2.35;;;36.20;40.50;;;;;;6306736;22;20018;-81
2022/06/17 11:52:07;;;;;;;6.63;2.70;;;36.40;42.50;;;;;;6336936;22;20071;-81
2022/06/17 11:54:38;;;;;;;3.67;2.30;;;36.50;40.90;;;;;;6338011;22;20433;-79
2022/06/17 11:57:25;;;;;;;4.30;2.20;;;36.60;42.30;;;;;;6338535;22;20158;-82
2022/06/17 11:59:56;;;;;;;2.85;2.40;;;36.90;41.60;;;;;;6337092;22;20135;-80
2022/06/17 12:02:22;;;;;;;3.25;2.42;;;37.10;41.80;;;;;;6337590;22;20075;-85
2022/06/17 12:04:49;;;;;;;3.42;2.35;;;37.30;41.10;;;;;;6337631;22;20003;-78
2022/06/17 12:07:40;;;;;;;3.90;2.72;;;37.40;39.60;;;;;;6309785;22;20089;-85
2022/06/17 12:10:36;;;;;;;3.78;1.95;;;37.50;39.30;;;;;;6336822;22;20074;-84
2022/06/17 12:13:16;;;;;;;3.25;2.30;;;37.60;39.70;;;;;;6309633;22;20006;-85
2022/06/17 12:15:47;;;;;;;3.00;2.38;;;37.50;39.20;;;;;;6313319;22;20006;-82
2022/06/17 12:18:20;;;;;;;4.38;2.47;;;37.50;39.40;;;;;;6344848;22;19999;-83
2022/06/17 12:21:18;;;;;;;4.93;2.63;;;37.50;39.80;;;;;;6340340;22;20066;-81
2022/06/17 12:23:57;;;;;;;5.78;2.75;;;37.50;39.00;;;;;;6203479;22;20007;-78
2022/06/17 12:26:29;;;;;;;;;;;37.40;39.10;;;;;;6336197;22;20026;-80
2022/06/17 12:29:09;;;;;;;4.20;2.40;;;37.50;38.60;;;;;;6334799;22;19903;-81
2022/06/17 12:31:56;;;;;;;5.70;3.17;;;37.50;39.40;;;;;;6332672;22;20002;-83
2022/06/17 12:35:12;;;;;;;6.55;2.72;;;37.50;40.40;;;;;;6335635;22;20010;-84
2022/06/17 12:38:12;;;;;;;5.78;2.92;;;37.60;39.20;;;;;;6265502;22;20132;-80
2022/06/17 12:40:46;;;;;;;5.70;2.58;;;37.70;39.90;;;;;;6334003;22;20071;-80
2022/06/17 12:43:24;;;;;;;3.42;2.63;;;37.60;40.20;;;;;;6333459;22;20037;-80
2022/06/17 12:46:12;;;;;;;6.07;2.78;;;37.80;39.90;;;;;;6336156;22;20089;-80
2022/06/17 12:48:58;;;;;;;3.78;2.78;;;37.80;40.20;;;;;;6336670;22;20011;-81
2022/06/17 12:54:35;;;;;;;3.92;3.13;;;37.90;40.40;;;;;;6336205;22;20022;-80
2022/06/17 12:57:11;;;;;;;5.35;2.80;;;38.00;40.70;;;;;;6335159;22;20405;-80
2022/06/17 13:00:04;;;;;;;4.07;2.97;;;38.10;39.50;;;;;;6337836;22;20476;-80
2022/06/17 13:02:52;;;;;;;3.97;3.25;;;38.20;40.10;;;;;;6337341;22;20037;-82
2022/06/17 13:05:36;;;;;;;8.25;3.33;;;38.30;39.00;;;;;;6334345;22;20009;-81
2022/06/17 13:08:14;;;;;;;3.67;2.60;;;38.00;39.70;;;;;;6307063;22;20078;-82
2022/06/17 13:10:49;;;;;;;5.43;3.25;;;38.00;40.10;;;;;;6336250;22;19999;-81
2022/06/17 13:13:35;;;;;;;5.22;2.90;;;37.80;40.30;;;;;;6310034;22;20082;-81
2022/06/17 13:16:30;;;;;;;3.72;3.30;;;37.70;41.20;;;;;;6337379;22;20021;-82
2022/06/17 13:19:35;;;;;;;3.42;3.00;;;37.60;40.80;;;;;;6338971;22;19995;-81
2022/06/17 13:22:25;;;;;;;3.22;2.92;;;37.60;40.20;;;;;;6338927;22;19999;-81
2022/06/17 13:24:56;;;;;;;3.88;2.70;;;37.70;41.50;;;;;;6340482;22;20077;-81
2022/06/17 13:27:42;;;;;;;4.00;2.88;;;37.80;41.30;;;;;;6338588;22;20006;-86
2022/06/17 13:30:22;;;;;;;4.95;2.90;;;37.80;41.50;;;;;;6340254;22;20006;-85
2022/06/17 13:32:57;;;;;;;3.75;3.25;;;37.60;41.30;;;;;;6339437;22;20006;-84
2022/06/17 13:35:34;;;;;;;8.82;3.63;;;37.50;42.20;;;;;;6339496;22;19994;-85